Time;durP1;ratioP1;P1;durP2;ratioP2;P2;SDS_P1;SDS_P2;PMS_P1;PMS_P2;Temp;Humidity;BMP_temperature;BMP_pressure;BME280_temperature;BME280_humidity;BME280_pressure;Samples;Min_cycle;Max_cycle;Signal;HPM_P1;HPM_P2
2021/07/17 00:00:39;0.00;0.00;0.62;0.00;0.00;0.62;18.93;10.10;;;26.70;43.30;;;;;;2265271;61;20381;-60
2021/07/17 00:03:24;0.00;0.00;0.62;0.00;0.00;0.62;17.00;9.93;;;26.70;43.20;;;;;;2265644;61;20353;-62
2021/07/17 00:06:10;0.00;0.00;0.62;0.00;0.00;0.62;19.60;9.83;;;26.60;43.20;;;;;;2265134;61;20727;-62
2021/07/17 00:08:55;0.00;0.00;0.62;0.00;0.00;0.62;22.97;10.50;;;26.60;43.20;;;;;;2265459;61;20345;-62
2021/07/17 00:11:39;0.00;0.00;0.62;0.00;0.00;0.62;16.00;10.37;;;26.60;43.30;;;;;;2266082;61;20361;-61
2021/07/17 00:14:24;0.00;0.00;0.62;0.00;0.00;0.62;13.70;8.30;;;26.50;43.20;;;;;;2266018;61;20578;-61
2021/07/17 00:17:09;0.00;0.00;0.62;0.00;0.00;0.62;23.17;11.13;;;26.50;43.30;;;;;;2265121;61;20381;-61
2021/07/17 00:19:53;0.00;0.00;0.62;0.00;0.00;0.62;22.20;11.37;;;26.50;43.30;;;;;;2265518;61;20484;-62
2021/07/17 00:22:40;0.00;0.00;0.62;0.00;0.00;0.62;14.90;8.93;;;26.40;43.30;;;;;;2265549;61;20469;-63
2021/07/17 00:25:25;0.00;0.00;0.62;0.00;0.00;0.62;18.33;10.20;;;26.40;43.40;;;;;;2265828;61;20520;-62
2021/07/17 00:28:10;0.00;0.00;0.62;0.00;0.00;0.62;15.07;9.00;;;26.40;43.40;;;;;;2265649;61;20416;-62
2021/07/17 00:30:55;0.00;0.00;0.62;0.00;0.00;0.62;17.07;9.83;;;26.40;43.40;;;;;;2262319;61;20365;-62
2021/07/17 00:33:39;0.00;0.00;0.62;0.00;0.00;0.62;14.70;8.97;;;26.40;43.50;;;;;;2265623;61;20352;-61
2021/07/17 00:36:24;0.00;0.00;0.62;0.00;0.00;0.62;14.67;8.20;;;26.30;43.40;;;;;;2265160;61;20388;-61
2021/07/17 00:39:10;0.00;0.00;0.62;0.00;0.00;0.62;17.10;9.47;;;26.30;43.40;;;;;;2265514;61;20392;-62
2021/07/17 00:41:55;0.00;0.00;0.62;0.00;0.00;0.62;22.80;10.70;;;26.30;43.50;;;;;;2265507;61;20581;-62
2021/07/17 00:44:39;0.00;0.00;0.62;0.00;0.00;0.62;18.40;9.57;;;26.30;43.50;;;;;;2265434;61;20360;-61
2021/07/17 00:47:25;0.00;0.00;0.62;0.00;0.00;0.62;16.83;10.43;;;26.30;43.50;;;;;;2265938;61;20369;-62
2021/07/17 00:50:13;0.00;0.00;0.62;0.00;0.00;0.62;24.87;10.73;;;26.20;43.50;;;;;;2265541;61;20364;-61
2021/07/17 00:52:59;0.00;0.00;0.62;0.00;0.00;0.62;16.50;10.50;;;26.20;43.50;;;;;;2265382;61;20380;-61
2021/07/17 00:55:49;0.00;0.00;0.62;0.00;0.00;0.62;16.00;9.40;;;26.20;43.50;;;;;;2265758;61;20608;-61
2021/07/17 00:58:39;0.00;0.00;0.62;0.00;0.00;0.62;16.50;9.60;;;26.20;43.60;;;;;;2265581;61;20357;-60
2021/07/17 01:01:26;0.00;0.00;0.62;0.00;0.00;0.62;14.23;8.57;;;26.20;43.60;;;;;;2265463;61;20413;-61
2021/07/17 01:04:12;0.00;0.00;0.62;0.00;0.00;0.62;16.27;9.13;;;26.10;43.60;;;;;;2265470;61;20356;-61
2021/07/17 01:06:58;0.00;0.00;0.62;0.00;0.00;0.62;13.53;8.50;;;26.10;43.60;;;;;;2265184;61;20666;-61
2021/07/17 01:09:43;0.00;0.00;0.62;0.00;0.00;0.62;14.53;10.20;;;26.10;43.70;;;;;;2265549;61;20427;-60
2021/07/17 01:12:29;0.00;0.00;0.62;0.00;0.00;0.62;19.17;10.13;;;26.10;43.60;;;;;;2265415;61;20429;-61
2021/07/17 01:15:14;0.00;0.00;0.62;0.00;0.00;0.62;18.87;10.07;;;26.20;43.70;;;;;;2265202;61;20381;-61
2021/07/17 01:17:59;0.00;0.00;0.62;0.00;0.00;0.62;18.87;9.93;;;26.10;43.70;;;;;;2265858;61;20461;-60
2021/07/17 01:20:43;0.00;0.00;0.62;0.00;0.00;0.62;17.20;10.23;;;26.20;43.70;;;;;;2265526;61;20389;-60
2021/07/17 01:23:29;0.00;0.00;0.62;0.00;0.00;0.62;17.30;9.73;;;26.10;43.70;;;;;;2265257;61;20449;-61
2021/07/17 01:26:16;0.00;0.00;0.62;0.00;0.00;0.62;16.00;9.43;;;26.10;43.60;;;;;;2265225;61;20443;-61
2021/07/17 01:29:01;0.00;0.00;0.62;0.00;0.00;0.62;17.43;9.33;;;26.10;43.70;;;;;;2265334;61;20361;-61
2021/07/17 01:31:45;0.00;0.00;0.62;0.00;0.00;0.62;18.07;9.50;;;26.00;43.60;;;;;;2265373;61;20438;-61
2021/07/17 01:34:30;0.00;0.00;0.62;0.00;0.00;0.62;18.93;9.67;;;26.00;43.70;;;;;;2265402;61;20408;-60
2021/07/17 01:37:14;0.00;0.00;0.62;0.00;0.00;0.62;17.63;9.93;;;26.00;43.80;;;;;;2265045;61;20377;-61
2021/07/17 01:40:05;0.00;0.00;0.62;0.00;0.00;0.62;13.83;8.97;;;26.00;43.80;;;;;;2265891;61;20589;-61
2021/07/17 01:42:52;0.00;0.00;0.62;0.00;0.00;0.62;19.90;9.80;;;26.00;43.90;;;;;;2265515;61;20400;-61
2021/07/17 01:45:39;0.00;0.00;0.62;0.00;0.00;0.62;16.63;10.17;;;25.90;43.80;;;;;;2265179;61;20404;-61
2021/07/17 01:48:23;0.00;0.00;0.62;0.00;0.00;0.62;18.40;9.90;;;25.90;43.80;;;;;;2264925;61;20443;-61
2021/07/17 01:51:08;0.00;0.00;0.62;0.00;0.00;0.62;17.37;10.67;;;25.90;43.90;;;;;;2265454;61;20361;-61
2021/07/17 01:53:57;0.00;0.00;0.62;0.00;0.00;0.62;17.63;9.60;;;25.80;43.90;;;;;;2265703;61;20407;-61
2021/07/17 01:56:43;0.00;0.00;0.62;0.00;0.00;0.62;20.57;10.83;;;25.80;44.00;;;;;;2265212;61;20392;-61
2021/07/17 01:59:27;0.00;0.00;0.62;0.00;0.00;0.62;16.10;9.83;;;25.80;44.00;;;;;;2265164;61;20356;-61
2021/07/17 02:02:13;0.00;0.00;0.62;0.00;0.00;0.62;22.20;11.40;;;25.80;44.70;;;;;;2265725;61;20395;-61
2021/07/17 02:05:03;0.00;0.00;0.62;0.00;0.00;0.62;19.80;10.60;;;25.70;44.10;;;;;;2265371;61;20391;-61
2021/07/17 02:07:48;0.00;0.00;0.62;0.00;0.00;0.62;15.67;9.63;;;25.70;44.10;;;;;;2265206;61;20647;-61
2021/07/17 02:10:35;0.00;0.00;0.62;0.00;0.00;0.62;18.10;10.33;;;25.60;44.20;;;;;;2264895;61;20385;-61
2021/07/17 02:13:21;0.00;0.00;0.62;0.00;0.00;0.62;16.40;10.67;;;25.60;44.30;;;;;;2265452;61;20572;-61
2021/07/17 02:16:05;0.00;0.00;0.62;0.00;0.00;0.62;11.77;10.17;;;25.60;44.40;;;;;;2265478;61;20373;-61
2021/07/17 02:18:50;0.00;0.00;0.62;0.00;0.00;0.62;18.90;10.63;;;25.60;44.50;;;;;;2265367;61;20365;-61
2021/07/17 02:21:35;0.00;0.00;0.62;0.00;0.00;0.62;19.30;11.60;;;25.50;44.50;;;;;;2264812;61;20389;-61
2021/07/17 02:24:20;0.00;0.00;0.62;0.00;0.00;0.62;18.77;10.10;;;25.50;45.10;;;;;;2265676;61;20361;-60
2021/07/17 02:27:04;0.00;0.00;0.62;0.00;0.00;0.62;20.60;12.17;;;25.50;44.50;;;;;;2265117;61;20654;-60
2021/07/17 02:29:50;0.00;0.00;0.62;0.00;0.00;0.62;19.07;11.80;;;25.50;44.50;;;;;;2265126;61;20365;-61
2021/07/17 02:32:35;0.00;0.00;0.62;0.00;0.00;0.62;22.97;12.23;;;25.50;44.60;;;;;;2265399;61;20357;-61
2021/07/17 02:35:20;0.00;0.00;0.62;0.00;0.00;0.62;27.27;11.17;;;25.50;44.70;;;;;;2265286;61;20605;-62
2021/07/17 02:38:05;0.00;0.00;0.62;0.00;0.00;0.62;18.83;12.97;;;25.50;44.70;;;;;;2266061;61;20377;-60
2021/07/17 02:40:49;0.00;0.00;0.62;0.00;0.00;0.62;17.90;11.27;;;25.50;44.90;;;;;;2265836;61;20400;-61
2021/07/17 02:43:34;0.00;0.00;0.62;0.00;0.00;0.62;17.47;11.13;;;25.50;44.90;;;;;;2265689;61;20349;-61
2021/07/17 02:46:20;0.00;0.00;0.62;0.00;0.00;0.62;27.30;12.27;;;25.40;44.80;;;;;;2266329;61;20360;-61
2021/07/17 02:49:04;0.00;0.00;0.62;0.00;0.00;0.62;25.67;13.53;;;25.40;44.90;;;;;;2265833;61;20720;-60
2021/07/17 02:51:49;0.00;0.00;0.62;0.00;0.00;0.62;21.20;13.27;;;25.40;44.90;;;;;;2265324;61;20353;-61
2021/07/17 02:54:33;0.00;0.00;0.62;0.00;0.00;0.62;22.40;12.03;;;25.40;44.90;;;;;;2266347;61;20713;-61
2021/07/17 02:57:18;0.00;0.00;0.62;0.00;0.00;0.62;19.40;12.40;;;25.40;44.90;;;;;;2266078;61;20427;-61
2021/07/17 03:00:07;0.00;0.00;0.62;0.00;0.00;0.62;25.90;13.17;;;25.30;44.90;;;;;;2266097;61;20392;-61
2021/07/17 03:02:53;0.00;0.00;0.62;0.00;0.00;0.62;18.47;11.30;;;25.30;45.10;;;;;;2265793;61;20365;-61
2021/07/17 03:05:38;0.00;0.00;0.62;0.00;0.00;0.62;19.40;12.13;;;25.30;45.10;;;;;;2265598;61;20353;-61
2021/07/17 03:08:23;0.00;0.00;0.62;0.00;0.00;0.62;20.30;12.10;;;25.30;45.20;;;;;;2266359;61;20396;-61
2021/07/17 03:11:08;0.00;0.00;0.62;0.00;0.00;0.62;21.97;14.20;;;25.20;45.10;;;;;;2265671;61;20357;-61
2021/07/17 03:13:52;0.00;0.00;0.62;0.00;0.00;0.62;30.70;15.00;;;25.20;45.20;;;;;;2265416;61;20353;-61
2021/07/17 03:16:37;0.00;0.00;0.62;0.00;0.00;0.62;16.77;12.47;;;25.20;45.20;;;;;;2266035;61;20660;-60
2021/07/17 03:19:24;0.00;0.00;0.62;0.00;0.00;0.62;21.13;12.13;;;25.20;45.20;;;;;;2266003;61;20403;-61
2021/07/17 03:22:09;0.00;0.00;0.62;0.00;0.00;0.62;22.50;13.77;;;25.20;45.20;;;;;;2266004;61;20358;-60
2021/07/17 03:24:54;0.00;0.00;0.62;0.00;0.00;0.62;20.37;12.43;;;25.20;46.00;;;;;;2265677;61;20389;-61
2021/07/17 03:27:38;0.00;0.00;0.62;0.00;0.00;0.62;24.50;14.57;;;25.20;45.30;;;;;;2265737;61;20369;-61
2021/07/17 03:30:23;0.00;0.00;0.62;0.00;0.00;0.62;17.00;12.13;;;25.10;45.40;;;;;;2266296;61;20377;-60
2021/07/17 03:33:08;0.00;0.00;0.62;0.00;0.00;0.62;19.20;11.90;;;25.10;45.40;;;;;;2265628;61;20349;-61
2021/07/17 03:35:55;0.00;0.00;0.62;0.00;0.00;0.62;25.03;13.90;;;25.10;45.40;;;;;;2265663;61;20415;-61
2021/07/17 03:38:39;0.00;0.00;0.62;0.00;0.00;0.62;23.90;13.70;;;25.10;45.60;;;;;;2266074;61;20725;-61
2021/07/17 03:41:24;0.00;0.00;0.62;0.00;0.00;0.62;14.93;11.80;;;25.10;45.60;;;;;;2265342;61;20384;-61
2021/07/17 03:44:10;0.00;0.00;0.62;0.00;0.00;0.62;22.77;14.87;;;25.10;45.60;;;;;;2265720;61;20662;-61
2021/07/17 03:46:54;0.00;0.00;0.62;0.00;0.00;0.62;26.40;11.93;;;25.10;45.80;;;;;;2265045;61;20974;-60
2021/07/17 03:49:39;0.00;0.00;0.62;0.00;0.00;0.62;22.00;13.60;;;25.10;45.80;;;;;;2265647;61;20349;-60
2021/07/17 03:52:25;0.00;0.00;0.62;0.00;0.00;0.62;21.90;13.53;;;25.10;45.80;;;;;;2266056;61;20360;-61
2021/07/17 03:55:10;0.00;0.00;0.62;0.00;0.00;0.62;20.17;13.33;;;25.10;45.80;;;;;;2265472;61;20778;-61
2021/07/17 03:57:55;0.00;0.00;0.62;0.00;0.00;0.62;24.00;14.30;;;25.10;45.80;;;;;;2265543;61;20465;-61
2021/07/17 04:00:39;0.00;0.00;0.62;0.00;0.00;0.62;22.57;12.00;;;25.10;45.90;;;;;;2265951;61;20353;-60
2021/07/17 04:03:24;0.00;0.00;0.62;0.00;0.00;0.62;31.20;15.50;;;25.10;45.90;;;;;;2265808;61;20353;-61
2021/07/17 04:06:09;0.00;0.00;0.62;0.00;0.00;0.62;21.43;12.93;;;25.10;46.20;;;;;;2265453;61;20349;-60
2021/07/17 04:08:55;0.00;0.00;0.62;0.00;0.00;0.62;23.87;14.57;;;25.10;46.10;;;;;;2265583;61;20361;-61
2021/07/17 04:11:39;0.00;0.00;0.62;0.00;0.00;0.62;21.50;14.20;;;25.10;46.20;;;;;;2265923;61;20357;-61
2021/07/17 04:14:24;0.00;0.00;0.62;0.00;0.00;0.62;24.53;13.57;;;25.10;46.10;;;;;;2265963;61;20642;-61
2021/07/17 04:17:08;0.00;0.00;0.62;0.00;0.00;0.62;25.10;13.20;;;25.10;46.10;;;;;;2265465;61;20385;-61
2021/07/17 04:19:53;0.00;0.00;0.62;0.00;0.00;0.62;25.90;15.83;;;25.10;46.20;;;;;;2265511;61;20621;-60
2021/07/17 04:22:38;0.00;0.00;0.62;0.00;0.00;0.62;24.33;13.53;;;25.00;46.20;;;;;;2265888;61;20721;-60
2021/07/17 04:25:24;0.00;0.00;0.62;0.00;0.00;0.62;20.40;13.97;;;25.00;46.20;;;;;;2265617;61;20364;-61
2021/07/17 04:28:08;0.00;0.00;0.62;0.00;0.00;0.62;20.47;12.53;;;25.00;46.20;;;;;;2265456;61;20397;-61
2021/07/17 04:30:52;0.00;0.00;0.62;0.00;0.00;0.62;23.47;13.87;;;25.00;46.20;;;;;;2265899;61;20388;-61
2021/07/17 04:33:37;0.00;0.00;0.62;0.00;0.00;0.62;24.33;13.90;;;25.10;46.40;;;;;;2266055;61;20411;-61
2021/07/17 04:36:22;0.00;0.00;0.62;0.00;0.00;0.62;22.83;14.10;;;25.00;46.30;;;;;;2265533;61;20484;-61
2021/07/17 04:39:06;0.00;0.00;0.62;0.00;0.00;0.62;21.17;13.20;;;25.10;46.40;;;;;;2265635;61;20388;-60
2021/07/17 04:41:52;0.00;0.00;0.62;0.00;0.00;0.62;25.23;13.90;;;25.10;46.40;;;;;;2265288;61;20403;-60
2021/07/17 04:44:37;0.00;0.00;0.62;0.00;0.00;0.62;24.23;13.30;;;25.10;46.30;;;;;;2265883;61;20356;-61
2021/07/17 04:47:22;0.00;0.00;0.62;0.00;0.00;0.62;22.63;14.23;;;25.10;46.30;;;;;;2265211;61;20601;-61
2021/07/17 04:50:08;0.00;0.00;0.62;0.00;0.00;0.62;19.47;12.53;;;25.10;46.40;;;;;;2265261;61;20385;-61
2021/07/17 04:52:53;0.00;0.00;0.62;0.00;0.00;0.62;16.57;12.10;;;25.00;46.30;;;;;;2266001;61;20361;-60
2021/07/17 04:55:38;0.00;0.00;0.62;0.00;0.00;0.62;21.13;13.63;;;25.00;46.40;;;;;;2265951;61;20377;-61
2021/07/17 04:58:25;0.00;0.00;0.62;0.00;0.00;0.62;18.73;13.13;;;25.00;46.40;;;;;;2265455;61;20384;-60
2021/07/17 05:01:09;0.00;0.00;0.62;0.00;0.00;0.62;21.90;13.30;;;25.00;46.40;;;;;;2265403;61;20597;-61
2021/07/17 05:03:54;0.00;0.00;0.62;0.00;0.00;0.62;18.20;13.40;;;25.00;46.50;;;;;;2264808;61;20708;-60
2021/07/17 05:06:38;0.00;0.00;0.62;0.00;0.00;0.62;24.53;12.90;;;25.00;46.50;;;;;;2265759;61;20369;-61
2021/07/17 05:09:23;0.00;0.00;0.62;0.00;0.00;0.62;19.60;12.27;;;25.00;46.50;;;;;;2265574;61;20368;-60
2021/07/17 05:12:08;0.00;0.00;0.62;0.00;0.00;0.62;21.70;13.13;;;25.00;46.40;;;;;;2265191;61;20709;-61
2021/07/17 05:14:54;0.00;0.00;0.62;0.00;0.00;0.62;24.53;14.40;;;25.10;46.50;;;;;;2265888;61;20561;-61
2021/07/17 05:17:39;0.00;0.00;0.62;0.00;0.00;0.62;21.10;12.80;;;25.10;46.50;;;;;;2265408;61;20795;-61
2021/07/17 05:20:23;0.00;0.00;0.62;0.00;0.00;0.62;18.87;12.50;;;25.10;46.50;;;;;;2265358;61;20357;-60
2021/07/17 05:23:11;0.00;0.00;0.62;0.00;0.00;0.62;24.27;13.37;;;25.10;46.40;;;;;;2265412;61;20396;-60
2021/07/17 05:25:55;0.00;0.00;0.62;0.00;0.00;0.62;24.43;12.63;;;25.10;46.40;;;;;;2265031;61;20353;-62
2021/07/17 05:28:40;0.00;0.00;0.62;0.00;0.00;0.62;17.63;12.17;;;25.10;46.30;;;;;;2265834;61;20353;-61
2021/07/17 05:31:26;0.00;0.00;0.62;0.00;0.00;0.62;15.37;11.80;;;25.10;46.30;;;;;;2265441;61;20616;-61
2021/07/17 05:34:10;0.00;0.00;0.62;0.00;0.00;0.62;21.60;12.40;;;25.10;46.30;;;;;;2265245;61;20360;-61
2021/07/17 05:36:55;0.00;0.00;0.62;0.00;0.00;0.62;23.70;13.17;;;25.10;46.30;;;;;;2265650;61;20423;-61
2021/07/17 05:39:39;0.00;0.00;0.62;0.00;0.00;0.62;19.33;11.00;;;25.10;46.30;;;;;;2265413;61;20350;-61
2021/07/17 05:42:24;0.00;0.00;0.62;0.00;0.00;0.62;20.97;11.77;;;25.10;46.30;;;;;;2265259;61;20606;-60
2021/07/17 05:45:10;0.00;0.00;0.62;0.00;0.00;0.62;15.00;11.60;;;25.10;46.20;;;;;;2265279;61;20755;-61
2021/07/17 05:47:56;0.00;0.00;0.62;0.00;0.00;0.62;13.87;10.67;;;25.20;46.20;;;;;;2265429;61;20384;-61
2021/07/17 05:50:40;0.00;0.00;0.62;0.00;0.00;0.62;15.27;10.70;;;25.20;46.30;;;;;;2265945;61;20783;-61
2021/07/17 05:53:25;0.00;0.00;0.62;0.00;0.00;0.62;16.80;10.90;;;25.20;46.20;;;;;;2265329;61;20354;-62
2021/07/17 05:56:09;0.00;0.00;0.62;0.00;0.00;0.62;16.23;10.17;;;25.20;46.20;;;;;;2264871;61;20396;-61
2021/07/17 05:58:54;0.00;0.00;0.62;0.00;0.00;0.62;18.20;10.53;;;25.20;46.10;;;;;;2265565;61;20380;-62
2021/07/17 06:01:38;0.00;0.00;0.62;0.00;0.00;0.62;18.10;10.30;;;25.20;46.10;;;;;;2265103;61;20385;-62
2021/07/17 06:04:24;0.00;0.00;0.62;0.00;0.00;0.62;13.10;9.80;;;25.20;46.20;;;;;;2265674;61;20559;-61
2021/07/17 06:07:09;0.00;0.00;0.62;0.00;0.00;0.62;18.50;10.27;;;25.20;46.20;;;;;;2265074;61;20377;-61
2021/07/17 06:09:53;0.00;0.00;0.62;0.00;0.00;0.62;17.17;10.20;;;25.20;46.20;;;;;;2265636;61;20403;-62
2021/07/17 06:12:38;0.00;0.00;0.62;0.00;0.00;0.62;12.43;9.13;;;25.20;46.10;;;;;;2266490;61;20726;-61
2021/07/17 06:15:22;0.00;0.00;0.62;0.00;0.00;0.62;17.30;9.47;;;25.30;46.20;;;;;;2266021;61;20360;-61
2021/07/17 06:18:07;0.00;0.00;0.62;0.00;0.00;0.62;12.00;8.83;;;25.30;46.10;;;;;;2266332;61;20374;-61
2021/07/17 06:20:52;0.00;0.00;0.62;0.00;0.00;0.62;12.73;8.53;;;25.30;46.10;;;;;;2266514;61;20662;-61
2021/07/17 06:23:37;0.00;0.00;0.62;0.00;0.00;0.62;16.70;10.07;;;25.40;46.10;;;;;;2266033;61;20353;-61
2021/07/17 06:26:22;0.00;0.00;0.62;0.00;0.00;0.62;15.50;9.60;;;25.40;46.10;;;;;;2266194;61;20586;-62
2021/07/17 06:29:06;0.00;0.00;0.62;0.00;0.00;0.62;15.40;9.20;;;25.40;46.00;;;;;;2266341;61;20574;-62
2021/07/17 06:31:50;0.00;0.00;0.62;0.00;0.00;0.62;18.27;10.13;;;25.40;46.00;;;;;;2266471;61;20364;-62
2021/07/17 06:34:35;0.00;0.00;0.62;0.00;0.00;0.62;11.97;8.23;;;25.50;46.00;;;;;;2266462;61;20358;-62
2021/07/17 06:37:21;0.00;0.00;0.62;0.00;0.00;0.62;12.00;8.33;;;25.50;46.00;;;;;;2265891;61;20385;-64
2021/07/17 06:40:09;0.00;0.00;0.62;0.00;0.00;0.62;10.80;8.03;;;25.50;45.90;;;;;;2266306;61;20420;-61
2021/07/17 06:42:54;0.00;0.00;0.62;0.00;0.00;0.62;12.00;8.80;;;25.50;45.80;;;;;;2266399;61;20438;-63
2021/07/17 06:45:39;0.00;0.00;0.62;0.00;0.00;0.62;10.97;7.67;;;25.60;45.90;;;;;;2265998;61;20348;-63
2021/07/17 06:48:23;0.00;0.00;0.62;0.00;0.00;0.62;13.83;8.67;;;25.60;46.50;;;;;;2266239;61;20383;-61
2021/07/17 06:51:11;0.00;0.00;0.62;0.00;0.00;0.62;11.23;7.93;;;25.60;45.70;;;;;;2266327;61;20391;-60
2021/07/17 06:53:57;0.00;0.00;0.62;0.00;0.00;0.62;12.60;8.93;;;25.70;45.80;;;;;;2266088;61;20368;-60
2021/07/17 06:56:41;0.00;0.00;0.62;0.00;0.00;0.62;9.77;8.13;;;25.70;45.70;;;;;;2266197;61;20629;-60
2021/07/17 06:59:26;0.00;0.00;0.62;0.00;0.00;0.62;9.50;7.07;;;25.70;45.70;;;;;;2266003;61;20407;-60
2021/07/17 07:02:10;0.00;0.00;0.62;0.00;0.00;0.62;15.03;9.30;;;25.70;45.60;;;;;;2265735;61;20609;-59
2021/07/17 07:04:55;0.00;0.00;0.62;0.00;0.00;0.62;11.73;7.70;;;25.70;45.60;;;;;;2266298;61;20408;-61
2021/07/17 07:07:40;0.00;0.00;0.62;0.00;0.00;0.62;11.53;8.77;;;25.80;45.60;;;;;;2265970;61;20372;-60
2021/07/17 07:10:27;0.00;0.00;0.62;0.00;0.00;0.62;13.20;8.47;;;25.80;45.50;;;;;;2266145;61;20384;-60
2021/07/17 07:13:13;0.00;0.00;0.62;0.00;0.00;0.62;11.47;8.47;;;25.80;45.50;;;;;;2266283;61;20357;-60
2021/07/17 07:15:58;0.00;0.00;0.62;0.00;0.00;0.62;13.90;8.13;;;25.80;45.40;;;;;;2265876;61;20476;-61
2021/07/17 07:18:42;0.00;0.00;0.62;0.00;0.00;0.62;9.73;7.27;;;25.80;45.40;;;;;;2266037;61;20721;-60
2021/07/17 07:21:27;0.00;0.00;0.62;0.00;0.00;0.62;12.97;6.50;;;25.80;45.40;;;;;;2265865;61;20760;-60
2021/07/17 07:24:12;0.00;0.00;0.62;0.00;0.00;0.62;13.33;7.43;;;25.80;45.30;;;;;;2265916;61;20403;-60
2021/07/17 07:26:58;0.00;0.00;0.62;0.00;0.00;0.62;12.27;7.50;;;25.80;45.20;;;;;;2266111;61;20435;-60
2021/07/17 07:29:42;0.00;0.00;0.62;0.00;0.00;0.62;12.20;6.53;;;25.90;45.30;;;;;;2265969;61;20395;-61
2021/07/17 07:32:27;0.00;0.00;0.62;0.00;0.00;0.62;12.23;7.70;;;25.90;45.30;;;;;;2265916;61;20481;-60
2021/07/17 07:35:12;0.00;0.00;0.62;0.00;0.00;0.62;10.33;6.90;;;25.90;45.10;;;;;;2265842;61;20356;-61
2021/07/17 07:37:57;0.00;0.00;0.62;0.00;0.00;0.62;12.47;7.80;;;25.90;45.10;;;;;;2265985;61;20419;-61
2021/07/17 07:40:41;0.00;0.00;0.62;0.00;0.00;0.62;9.23;5.80;;;25.90;45.10;;;;;;2265582;61;20356;-60
2021/07/17 07:43:27;0.00;0.00;0.62;0.00;0.00;0.62;11.77;6.67;;;25.90;45.10;;;;;;2265929;61;20399;-61
2021/07/17 07:46:12;0.00;0.00;0.62;0.00;0.00;0.62;7.33;5.47;;;25.90;45.00;;;;;;2265829;61;20357;-61
2021/07/17 07:48:56;0.00;0.00;0.62;0.00;0.00;0.62;7.57;5.67;;;25.90;45.00;;;;;;2266269;61;20415;-61
2021/07/17 07:51:40;0.00;0.00;0.62;0.00;0.00;0.62;5.53;4.83;;;25.90;45.00;;;;;;2265820;61;20357;-61
2021/07/17 07:54:25;0.00;0.00;0.62;0.00;0.00;0.62;9.73;5.57;;;26.00;45.00;;;;;;2265819;61;20442;-61
2021/07/17 07:57:09;0.00;0.00;0.62;0.00;0.00;0.62;9.63;5.60;;;25.90;44.90;;;;;;2266119;61;20389;-60
2021/07/17 07:59:55;0.00;0.00;0.62;0.00;0.00;0.62;7.97;4.63;;;26.00;44.90;;;;;;2265824;61;20396;-61
2021/07/17 08:02:41;0.00;0.00;0.62;0.00;0.00;0.62;8.73;5.33;;;26.00;44.80;;;;;;2265988;61;20365;-61
2021/07/17 08:05:26;0.00;0.00;0.62;0.00;0.00;0.62;9.60;5.27;;;26.00;44.80;;;;;;2266140;61;20361;-61
2021/07/17 08:08:10;0.00;0.00;0.62;0.00;0.00;0.62;9.30;5.03;;;26.00;44.80;;;;;;2265672;61;20620;-61
2021/07/17 08:10:55;0.00;0.00;0.62;0.00;0.00;0.62;8.80;5.63;;;26.00;44.70;;;;;;2266220;61;20619;-61
2021/07/17 08:13:39;0.00;0.00;0.62;0.00;0.00;0.62;5.87;4.80;;;26.00;44.70;;;;;;2265732;61;20360;-61
2021/07/17 08:16:25;0.00;0.00;0.62;0.00;0.00;0.62;8.00;4.93;;;26.00;44.70;;;;;;2265629;61;20418;-61
2021/07/17 08:19:10;0.00;0.00;0.62;0.00;0.00;0.62;9.67;4.50;;;26.10;44.70;;;;;;2266201;61;20369;-61
2021/07/17 08:21:55;0.00;0.00;0.62;0.00;0.00;0.62;8.83;4.10;;;26.10;44.60;;;;;;2265572;61;20381;-61
2021/07/17 08:24:39;0.00;0.00;0.62;0.00;0.00;0.62;8.10;5.50;;;26.10;44.60;;;;;;2265806;61;20618;-61
2021/07/17 08:27:24;0.00;0.00;0.62;0.00;0.00;0.62;7.53;4.63;;;26.20;44.60;;;;;;2266176;61;20456;-62
2021/07/17 08:30:11;0.00;0.00;0.62;0.00;0.00;0.62;6.20;4.10;;;26.20;44.50;;;;;;2265707;61;20591;-61
2021/07/17 08:32:57;0.00;0.00;0.62;0.00;0.00;0.62;6.40;4.87;;;26.20;44.50;;;;;;2266049;61;20693;-61
2021/07/17 08:35:42;0.00;0.00;0.62;0.00;0.00;0.62;5.70;4.27;;;26.30;44.40;;;;;;2265272;61;20459;-62
2021/07/17 08:38:26;0.00;0.00;0.62;0.00;0.00;0.62;7.00;4.53;;;26.30;44.30;;;;;;2265762;61;20423;-59
2021/07/17 08:41:11;0.00;0.00;0.62;0.00;0.00;0.62;8.50;4.33;;;26.30;44.30;;;;;;2266029;61;20361;-61
2021/07/17 08:43:56;0.00;0.00;0.62;0.00;0.00;0.62;9.77;4.57;;;26.30;44.30;;;;;;2265405;61;20364;-62
2021/07/17 08:46:42;0.00;0.00;0.62;0.00;0.00;0.62;6.57;4.53;;;26.30;44.00;;;;;;2265742;61;20389;-61
2021/07/17 08:49:29;0.00;0.00;0.62;0.00;0.00;0.62;4.57;3.90;;;26.30;43.90;;;;;;2266067;61;20380;-59
2021/07/17 08:52:14;0.00;0.00;0.62;0.00;0.00;0.62;5.33;4.00;;;26.40;44.00;;;;;;2265602;61;20588;-61
2021/07/17 08:55:04;0.00;0.00;0.62;0.00;0.00;0.62;4.63;4.10;;;26.40;43.80;;;;;;2265737;61;20373;-61
2021/07/17 08:57:49;0.00;0.00;0.62;0.00;0.00;0.62;8.00;4.10;;;26.50;43.60;;;;;;2265463;61;20432;-61
2021/07/17 09:00:36;0.00;0.00;0.62;0.00;0.00;0.62;5.83;3.60;;;26.50;43.40;;;;;;2265774;61;20752;-61
2021/07/17 09:03:21;0.00;0.00;0.62;0.00;0.00;0.62;4.90;3.40;;;26.50;43.20;;;;;;2265969;61;20591;-62
2021/07/17 09:06:06;0.00;0.00;0.62;0.00;0.00;0.62;5.40;3.10;;;26.50;43.10;;;;;;2265415;61;20361;-62
2021/07/17 09:08:53;0.00;0.00;0.62;0.00;0.00;0.62;3.60;2.90;;;26.50;43.10;;;;;;2265821;61;20368;-62
2021/07/17 09:11:40;0.00;0.00;0.62;0.00;0.00;0.62;3.90;3.20;;;26.50;42.90;;;;;;2265953;61;20361;-62
2021/07/17 09:14:38;0.00;0.00;0.62;0.00;0.00;0.62;5.90;3.40;;;26.50;42.80;;;;;;2265603;61;20395;-60
2021/07/17 09:17:27;0.00;0.00;0.62;0.00;0.00;0.62;5.40;3.57;;;26.60;42.80;;;;;;2265858;61;20431;-61
2021/07/17 09:20:12;0.00;0.00;0.62;0.00;0.00;0.62;3.33;3.00;;;26.60;42.60;;;;;;2265502;61;20434;-62
2021/07/17 09:23:00;0.00;0.00;0.62;0.00;0.00;0.62;3.90;2.73;;;26.60;42.50;;;;;;2265694;61;20419;-62
2021/07/17 09:25:45;0.00;0.00;0.62;0.00;0.00;0.62;4.03;2.77;;;26.60;42.50;;;;;;2265811;61;20412;-61
2021/07/17 09:28:31;0.00;0.00;0.62;0.00;0.00;0.62;4.30;3.20;;;26.70;42.20;;;;;;2265018;61;20373;-61
2021/07/17 09:31:15;0.00;0.00;0.62;0.00;0.00;0.62;2.97;2.53;;;26.70;42.00;;;;;;2265575;61;20464;-61
2021/07/17 09:34:08;0.00;0.00;0.62;0.00;0.00;0.62;3.80;2.50;;;26.70;41.80;;;;;;2265939;61;20361;-61
2021/07/17 09:36:57;0.00;0.00;0.62;0.00;0.00;0.62;3.10;2.50;;;26.70;41.50;;;;;;2265777;61;20392;-61
2021/07/17 09:39:49;0.00;0.00;0.62;0.00;0.00;0.62;2.90;2.33;;;26.70;41.30;;;;;;2265835;61;20400;-59
2021/07/17 09:42:42;0.00;0.00;0.62;0.00;0.00;0.62;2.90;2.60;;;26.70;41.40;;;;;;2265379;61;20353;-62
2021/07/17 09:45:34;0.00;0.00;0.62;0.00;0.00;0.62;3.80;2.07;;;26.70;41.20;;;;;;2265547;61;20354;-62
2021/07/17 09:48:24;0.00;0.00;0.62;0.00;0.00;0.62;2.63;2.33;;;26.80;41.10;;;;;;2265849;61;20424;-61
2021/07/17 09:51:08;0.00;0.00;0.62;0.00;0.00;0.62;2.77;2.13;;;26.80;41.10;;;;;;2265543;61;20752;-63
2021/07/17 09:53:55;0.00;0.00;0.62;0.00;0.00;0.62;5.03;3.03;;;26.80;41.10;;;;;;2265250;61;20416;-60
2021/07/17 09:56:42;0.00;0.00;0.62;0.00;0.00;0.62;3.23;2.20;;;26.80;41.10;;;;;;2265257;61;20752;-62
2021/07/17 09:59:27;0.00;0.00;0.62;0.00;0.00;0.62;2.50;2.30;;;26.90;41.10;;;;;;2265362;61;20507;-61
2021/07/17 10:02:30;0.00;0.00;0.62;0.00;0.00;0.62;3.33;2.40;;;26.90;40.80;;;;;;2265826;61;20357;-61
2021/07/17 10:05:17;0.00;0.00;0.62;0.00;0.00;0.62;3.40;2.27;;;26.90;40.70;;;;;;2265467;61;20360;-62
2021/07/17 10:08:09;0.00;0.00;0.62;0.00;0.00;0.62;6.00;2.43;;;27.00;40.70;;;;;;2265622;61;20491;-61
2021/07/17 10:11:01;0.00;0.00;0.62;0.00;0.00;0.62;3.83;2.90;;;27.00;40.80;;;;;;2265786;61;20400;-61
2021/07/17 10:13:47;0.00;0.00;0.62;0.00;0.00;0.62;3.13;2.00;;;27.00;40.90;;;;;;2265512;61;20369;-62
2021/07/17 10:16:32;0.00;0.00;0.62;0.00;0.00;0.62;2.77;1.90;;;27.00;40.70;;;;;;2265597;61;20474;-62
2021/07/17 10:19:17;0.00;0.00;0.62;0.00;0.00;0.62;3.03;2.13;;;27.10;40.60;;;;;;2265370;61;20464;-63
2021/07/17 10:22:02;0.00;0.00;0.62;0.00;0.00;0.62;4.80;2.10;;;27.10;40.50;;;;;;2265089;61;20392;-62
2021/07/17 10:24:48;0.00;0.00;0.62;0.00;0.00;0.62;6.53;2.90;;;27.10;40.30;;;;;;2265740;61;20404;-62
2021/07/17 10:27:34;0.00;0.00;0.62;0.00;0.00;0.62;5.17;2.30;;;27.20;40.10;;;;;;2265416;61;20427;-63
2021/07/17 10:30:19;0.00;0.00;0.62;0.00;0.00;0.62;3.70;2.40;;;27.20;40.00;;;;;;2265578;61;20603;-61
2021/07/17 10:33:05;0.00;0.00;0.62;0.00;0.00;0.62;3.60;2.30;;;27.20;39.90;;;;;;2265782;61;20365;-63
2021/07/17 10:35:50;0.00;0.00;0.62;0.00;0.00;0.62;4.30;2.20;;;27.20;39.80;;;;;;2265271;61;20353;-62
2021/07/17 10:38:39;0.00;0.00;0.62;0.00;0.00;0.62;3.00;2.40;;;27.30;39.90;;;;;;2265560;61;20364;-62
2021/07/17 10:41:26;0.00;0.00;0.62;0.00;0.00;0.62;3.10;2.27;;;27.30;39.90;;;;;;2265459;61;20395;-62
2021/07/17 10:44:11;0.00;0.00;0.62;0.00;0.00;0.62;4.17;2.10;;;27.30;39.90;;;;;;2265477;61;20429;-61
2021/07/17 10:47:05;0.00;0.00;0.62;0.00;0.00;0.62;5.00;2.37;;;27.40;39.90;;;;;;2265673;61;20636;-62